Ana Sayfa
Uydu görüntüleri 10 günlük hava tahminleriİklimDenizcilik hava durumu Kasırgalar Yıldırım HavaalanlarıSSS Bülten Hakkında
Hava durumu : Avrupa Afrika Kuzey Amerika Güney Amerika Asya Avustralya-Okyanusya Diğerleri
Diller İletişim

Istanbul Sabiha Gökçen, Türkiye

Sabiha Gökçen Havalimanı

Enlem: 40-53-55N, Boylam: 029-18-33E, yükseklik: 95 m


METAR: LTFJ 271250Z 25009KT 9999 FEW035 SCT200 22/08 Q1015 NOSIG
TAF: LTFJ 271040Z 2712/2812 21007KT CAVOK PROB30 TEMPO 2800/2803 4000 BR

Saat: 16:33 (13:33 UTC)

Güncel hava durumu gözlemi

Rapor saat 12:50 UTC de 43 dakika önce yapıldı.
Rüzgar batı/güneybatıdan 9 kt
Sıcaklık 22°C
Nem 41%
Basınç 1015 hPa
Görüş mesafesi 10 km veya daha fazla
3500 ft yükseklikte az bulutlu
20000 ft yükseklikte parçalı bulutlu

Birimleri değiştir

Tahmin

Rapor saat 10:40 UTC de 2 saat ve 53 dakika önce yapıldı.
Ayın 27'si saat 12 UTC'den ayın 28'si saat 12 UTC'ye kadar geçerli Tahmin
Rüzgar güney/güneybatıdan 7 kt
Görüş mesafesi 10 km veya daha fazla
1500 m altında bulut yok ve kümülonimbus yok
Olasılık 30% :
Geçici
ayın 28'si saat 00 UTC'den ayın 28'si saat 03 UTC'ye kadar
Görüş mesafesi: 4000 m
Pus
Bu sitedeki bilgilerin kullanımı bir feragatname'ye tabidir.
Hava durumu : Avrupa Afrika Kuzey Amerika Güney Amerika Asya Avustralya-Okyanusya Diğerleri
Uydu görüntüleri 10 günlük hava tahminleriİklimDenizcilik hava durumu Kasırgalar Yıldırım HavaalanlarıSSS Diller İletişim Bülten Hakkında